sensor_id;sensor_type;location;lat;lon;timestamp;pressure;altitude;pressure_sealevel;temperature
62611;BMP280;48683;48.084;17.272;2022-12-07T00:02:24;100227.94;;;4.72
62611;BMP280;48683;48.084;17.272;2022-12-07T00:04:49;100236.69;;;4.72
62611;BMP280;48683;48.084;17.272;2022-12-07T00:07:14;100230.59;;;4.72
62611;BMP280;48683;48.084;17.272;2022-12-07T00:09:40;100217.56;;;4.67
62611;BMP280;48683;48.084;17.272;2022-12-07T00:12:06;100231.81;;;4.74
62611;BMP280;48683;48.084;17.272;2022-12-07T00:14:32;100218.78;;;4.69
62611;BMP280;48683;48.084;17.272;2022-12-07T00:16:57;100226.38;;;4.71
62611;BMP280;48683;48.084;17.272;2022-12-07T00:19:23;100226.06;;;4.72
62611;BMP280;48683;48.084;17.272;2022-12-07T00:21:48;100234.97;;;4.80
62611;BMP280;48683;48.084;17.272;2022-12-07T00:24:13;100227.16;;;4.71
62611;BMP280;48683;48.084;17.272;2022-12-07T00:26:40;100218.16;;;4.76
62611;BMP280;48683;48.084;17.272;2022-12-07T00:29:10;100230.00;;;4.78
62611;BMP280;48683;48.084;17.272;2022-12-07T00:31:37;100227.78;;;4.81
62611;BMP280;48683;48.084;17.272;2022-12-07T00:34:13;100224.78;;;4.82
62611;BMP280;48683;48.084;17.272;2022-12-07T00:36:38;100202.19;;;4.76
62611;BMP280;48683;48.084;17.272;2022-12-07T00:39:04;100212.91;;;4.79
62611;BMP280;48683;48.084;17.272;2022-12-07T00:41:30;100226.03;;;4.88
62611;BMP280;48683;48.084;17.272;2022-12-07T00:43:55;100218.69;;;4.82
62611;BMP280;48683;48.084;17.272;2022-12-07T00:46:21;100224.78;;;4.82
62611;BMP280;48683;48.084;17.272;2022-12-07T00:48:48;100226.38;;;4.87
62611;BMP280;48683;48.084;17.272;2022-12-07T00:51:14;100222.97;;;4.86
62611;BMP280;48683;48.084;17.272;2022-12-07T00:53:40;100212.06;;;4.75
62611;BMP280;48683;48.084;17.272;2022-12-07T00:56:17;100215.66;;;4.83
62611;BMP280;48683;48.084;17.272;2022-12-07T00:58:43;100214.88;;;4.83
62611;BMP280;48683;48.084;17.272;2022-12-07T01:01:10;100218.38;;;4.87
62611;BMP280;48683;48.084;17.272;2022-12-07T01:03:36;100217.44;;;4.95
62611;BMP280;48683;48.084;17.272;2022-12-07T01:06:02;100219.50;;;5.01
62611;BMP280;48683;48.084;17.272;2022-12-07T01:08:28;100221.53;;;5.08
62611;BMP280;48683;48.084;17.272;2022-12-07T01:11:02;100231.63;;;5.18
62611;BMP280;48683;48.084;17.272;2022-12-07T01:13:28;100223.25;;;5.16
62611;BMP280;48683;48.084;17.272;2022-12-07T01:16:00;100211.47;;;5.17
62611;BMP280;48683;48.084;17.272;2022-12-07T01:18:26;100212.75;;;5.23
62611;BMP280;48683;48.084;17.272;2022-12-07T01:21:07;100231.09;;;5.28
62611;BMP280;48683;48.084;17.272;2022-12-07T01:23:34;100212.94;;;5.14
62611;BMP280;48683;48.084;17.272;2022-12-07T01:26:02;100220.31;;;5.21
62611;BMP280;48683;48.084;17.272;2022-12-07T01:28:28;100219.63;;;5.24
62611;BMP280;48683;48.084;17.272;2022-12-07T01:31:08;100218.41;;;5.21
62611;BMP280;48683;48.084;17.272;2022-12-07T01:33:36;100228.38;;;5.24
62611;BMP280;48683;48.084;17.272;2022-12-07T01:38:47;100220.59;;;5.35
62611;BMP280;48683;48.084;17.272;2022-12-07T01:41:13;100220.94;;;5.34
62611;BMP280;48683;48.084;17.272;2022-12-07T01:46:35;100206.78;;;5.30
62611;BMP280;48683;48.084;17.272;2022-12-07T01:49:01;100207.56;;;5.30
62611;BMP280;48683;48.084;17.272;2022-12-07T01:51:27;100211.50;;;5.36
62611;BMP280;48683;48.084;17.272;2022-12-07T01:53:53;100196.22;;;5.33
62611;BMP280;48683;48.084;17.272;2022-12-07T01:56:20;100202.03;;;5.39
62611;BMP280;48683;48.084;17.272;2022-12-07T01:58:51;100201.25;;;5.38
62611;BMP280;48683;48.084;17.272;2022-12-07T02:01:16;100189.69;;;5.31
62611;BMP280;48683;48.084;17.272;2022-12-07T02:03:44;100187.41;;;5.29
62611;BMP280;48683;48.084;17.272;2022-12-07T02:06:12;100192.03;;;5.32
62611;BMP280;48683;48.084;17.272;2022-12-07T02:08:38;100181.44;;;5.16
62611;BMP280;48683;48.084;17.272;2022-12-07T02:11:05;100192.63;;;5.25
62611;BMP280;48683;48.084;17.272;2022-12-07T02:13:35;100187.94;;;5.19
62611;BMP280;48683;48.084;17.272;2022-12-07T02:24:10;100190.66;;;5.22
62611;BMP280;48683;48.084;17.272;2022-12-07T02:29:40;100181.63;;;5.08
62611;BMP280;48683;48.084;17.272;2022-12-07T02:32:16;100186.50;;;5.06
62611;BMP280;48683;48.084;17.272;2022-12-07T02:34:50;100191.50;;;5.07
62611;BMP280;48683;48.084;17.272;2022-12-07T02:39:55;100161.34;;;4.84
62611;BMP280;48683;48.084;17.272;2022-12-07T02:42:28;100187.06;;;4.96
62611;BMP280;48683;48.084;17.272;2022-12-07T02:44:55;100188.88;;;4.92
62611;BMP280;48683;48.084;17.272;2022-12-07T02:47:22;100192.94;;;4.86
62611;BMP280;48683;48.084;17.272;2022-12-07T02:49:50;100185.38;;;4.88
62611;BMP280;48683;48.084;17.272;2022-12-07T02:52:16;100187.78;;;4.77
62611;BMP280;48683;48.084;17.272;2022-12-07T02:54:41;100177.25;;;4.65
62611;BMP280;48683;48.084;17.272;2022-12-07T03:03:32;100189.50;;;4.85
62611;BMP280;48683;48.084;17.272;2022-12-07T03:06:10;100193.34;;;4.88
62611;BMP280;48683;48.084;17.272;2022-12-07T03:08:53;100189.75;;;4.80
62611;BMP280;48683;48.084;17.272;2022-12-07T03:11:29;100185.63;;;4.83
62611;BMP280;48683;48.084;17.272;2022-12-07T03:14:04;100181.38;;;4.78
62611;BMP280;48683;48.084;17.272;2022-12-07T03:16:35;100191.72;;;4.83
62611;BMP280;48683;48.084;17.272;2022-12-07T03:19:07;100192.50;;;4.84
62611;BMP280;48683;48.084;17.272;2022-12-07T03:21:38;100188.97;;;4.79
62611;BMP280;48683;48.084;17.272;2022-12-07T03:24:08;100182.16;;;4.63
62611;BMP280;48683;48.084;17.272;2022-12-07T03:26:37;100186.59;;;4.74
62611;BMP280;48683;48.084;17.272;2022-12-07T03:29:31;100188.56;;;4.77
62611;BMP280;48683;48.084;17.272;2022-12-07T03:32:23;100203.41;;;4.78
62611;BMP280;48683;48.084;17.272;2022-12-07T03:35:03;100197.81;;;4.84
62611;BMP280;48683;48.084;17.272;2022-12-07T03:37:41;100199.69;;;4.83
62611;BMP280;48683;48.084;17.272;2022-12-07T03:40:14;100200.22;;;4.89
62611;BMP280;48683;48.084;17.272;2022-12-07T03:42:42;100195.16;;;4.84
62611;BMP280;48683;48.084;17.272;2022-12-07T03:45:08;100195.94;;;4.84
62611;BMP280;48683;48.084;17.272;2022-12-07T03:47:41;100194.44;;;4.87
62611;BMP280;48683;48.084;17.272;2022-12-07T03:52:59;100198.59;;;4.84
62611;BMP280;48683;48.084;17.272;2022-12-07T03:55:31;100192.22;;;4.89
62611;BMP280;48683;48.084;17.272;2022-12-07T03:58:04;100194.97;;;4.92
62611;BMP280;48683;48.084;17.272;2022-12-07T04:00:31;100196.16;;;4.95
62611;BMP280;48683;48.084;17.272;2022-12-07T04:02:56;100198.41;;;4.93
62611;BMP280;48683;48.084;17.272;2022-12-07T04:05:22;100197.22;;;4.90
62611;BMP280;48683;48.084;17.272;2022-12-07T04:07:47;100194.91;;;4.89
62611;BMP280;48683;48.084;17.272;2022-12-07T04:10:13;100204.50;;;4.93
62611;BMP280;48683;48.084;17.272;2022-12-07T04:12:39;100187.16;;;4.84
62611;BMP280;48683;48.084;17.272;2022-12-07T04:15:05;100202.44;;;4.87
62611;BMP280;48683;48.084;17.272;2022-12-07T04:17:31;100173.81;;;4.64
62611;BMP280;48683;48.084;17.272;2022-12-07T04:19:56;100166.09;;;4.59
62611;BMP280;48683;48.084;17.272;2022-12-07T04:22:22;100202.34;;;4.83
62611;BMP280;48683;48.084;17.272;2022-12-07T04:24:47;100205.38;;;4.82
62611;BMP280;48683;48.084;17.272;2022-12-07T04:27:12;100199.97;;;4.78
62611;BMP280;48683;48.084;17.272;2022-12-07T04:29:38;100206.22;;;4.86
62611;BMP280;48683;48.084;17.272;2022-12-07T04:32:03;100202.53;;;4.90
62611;BMP280;48683;48.084;17.272;2022-12-07T04:34:28;100202.44;;;4.87
62611;BMP280;48683;48.084;17.272;2022-12-07T04:36:54;100204.84;;;4.92
62611;BMP280;48683;48.084;17.272;2022-12-07T04:39:25;100213.34;;;4.97
62611;BMP280;48683;48.084;17.272;2022-12-07T04:41:51;100190.28;;;4.86
62611;BMP280;48683;48.084;17.272;2022-12-07T04:44:17;100214.97;;;5.02
62611;BMP280;48683;48.084;17.272;2022-12-07T04:46:43;100207.66;;;4.99
62611;BMP280;48683;48.084;17.272;2022-12-07T04:49:09;100216.41;;;4.99
62611;BMP280;48683;48.084;17.272;2022-12-07T04:51:35;100180.66;;;4.81
62611;BMP280;48683;48.084;17.272;2022-12-07T04:54:00;100217.19;;;5.00
62611;BMP280;48683;48.084;17.272;2022-12-07T04:56:26;100216.84;;;5.01
62611;BMP280;48683;48.084;17.272;2022-12-07T04:58:53;100218.44;;;5.06
62611;BMP280;48683;48.084;17.272;2022-12-07T05:01:19;100217.25;;;5.03
62611;BMP280;48683;48.084;17.272;2022-12-07T05:03:45;100216.84;;;5.01
62611;BMP280;48683;48.084;17.272;2022-12-07T05:06:11;100212.56;;;4.97
62611;BMP280;48683;48.084;17.272;2022-12-07T05:08:36;100216.91;;;5.05
62611;BMP280;48683;48.084;17.272;2022-12-07T05:11:02;100206.19;;;5.01
62611;BMP280;48683;48.084;17.272;2022-12-07T05:13:28;100212.78;;;5.07
62611;BMP280;48683;48.084;17.272;2022-12-07T05:15:53;100208.94;;;5.05
62611;BMP280;48683;48.084;17.272;2022-12-07T05:18:19;100213.56;;;5.08
62611;BMP280;48683;48.084;17.272;2022-12-07T05:20:44;100210.81;;;5.04
62611;BMP280;48683;48.084;17.272;2022-12-07T05:23:10;100209.34;;;5.07
62611;BMP280;48683;48.084;17.272;2022-12-07T05:25:36;100213.13;;;5.06
62611;BMP280;48683;48.084;17.272;2022-12-07T05:28:02;100220.06;;;5.10
62611;BMP280;48683;48.084;17.272;2022-12-07T05:30:28;100219.72;;;5.12
62611;BMP280;48683;48.084;17.272;2022-12-07T05:32:53;100226.53;;;5.09
62611;BMP280;48683;48.084;17.272;2022-12-07T05:35:19;100221.63;;;5.11
62611;BMP280;48683;48.084;17.272;2022-12-07T05:37:45;100221.09;;;5.06
62611;BMP280;48683;48.084;17.272;2022-12-07T05:40:11;100224.34;;;5.15
62611;BMP280;48683;48.084;17.272;2022-12-07T05:42:38;100229.75;;;5.18
62611;BMP280;48683;48.084;17.272;2022-12-07T05:45:04;100227.44;;;5.17
62611;BMP280;48683;48.084;17.272;2022-12-07T05:47:29;100218.19;;;5.11
62611;BMP280;48683;48.084;17.272;2022-12-07T05:49:55;100214.59;;;5.03
62611;BMP280;48683;48.084;17.272;2022-12-07T05:52:20;100209.53;;;4.98
62611;BMP280;48683;48.084;17.272;2022-12-07T05:54:46;100223.44;;;5.07
62611;BMP280;48683;48.084;17.272;2022-12-07T05:57:11;100217.81;;;4.93
62611;BMP280;48683;48.084;17.272;2022-12-07T05:59:36;100231.75;;;5.06
62611;BMP280;48683;48.084;17.272;2022-12-07T06:02:05;100220.63;;;5.00
62611;BMP280;48683;48.084;17.272;2022-12-07T06:04:33;100227.13;;;5.03
62611;BMP280;48683;48.084;17.272;2022-12-07T06:06:59;100216.84;;;5.01
62611;BMP280;48683;48.084;17.272;2022-12-07T06:09:27;100224.13;;;5.04
62611;BMP280;48683;48.084;17.272;2022-12-07T06:11:53;100223.59;;;4.99
62611;BMP280;48683;48.084;17.272;2022-12-07T06:14:37;100219.75;;;4.96
62611;BMP280;48683;48.084;17.272;2022-12-07T06:17:03;100213.84;;;4.87
62611;BMP280;48683;48.084;17.272;2022-12-07T06:19:28;100221.50;;;4.89
62611;BMP280;48683;48.084;17.272;2022-12-07T06:21:54;100226.63;;;4.97
62611;BMP280;48683;48.084;17.272;2022-12-07T06:24:20;100229.00;;;5.02
62611;BMP280;48683;48.084;17.272;2022-12-07T06:26:45;100223.81;;;4.90
62611;BMP280;48683;48.084;17.272;2022-12-07T06:29:12;100235.38;;;4.98
62611;BMP280;48683;48.084;17.272;2022-12-07T06:31:37;100234.69;;;5.01
62611;BMP280;48683;48.084;17.272;2022-12-07T06:34:05;100232.38;;;4.99
62611;BMP280;48683;48.084;17.272;2022-12-07T06:36:31;100219.31;;;4.94
62611;BMP280;48683;48.084;17.272;2022-12-07T06:38:57;100240.50;;;5.06
62611;BMP280;48683;48.084;17.272;2022-12-07T06:41:23;100232.38;;;4.99
62611;BMP280;48683;48.084;17.272;2022-12-07T06:43:48;100241.63;;;5.05
62611;BMP280;48683;48.084;17.272;2022-12-07T06:46:15;100230.91;;;5.02
62611;BMP280;48683;48.084;17.272;2022-12-07T06:48:41;100230.56;;;5.03
62611;BMP280;48683;48.084;17.272;2022-12-07T06:51:06;100224.75;;;4.98
62611;BMP280;48683;48.084;17.272;2022-12-07T06:53:32;100244.88;;;5.14
62611;BMP280;48683;48.084;17.272;2022-12-07T06:55:57;100245.22;;;5.13
62611;BMP280;48683;48.084;17.272;2022-12-07T06:58:23;100233.59;;;5.02
62611;BMP280;48683;48.084;17.272;2022-12-07T07:00:48;100237.75;;;5.03
62611;BMP280;48683;48.084;17.272;2022-12-07T07:03:14;100239.38;;;5.07
62611;BMP280;48683;48.084;17.272;2022-12-07T07:05:40;100245.81;;;5.06
62611;BMP280;48683;48.084;17.272;2022-12-07T07:08:05;100236.56;;;5.00
62611;BMP280;48683;48.084;17.272;2022-12-07T07:10:30;100231.34;;;5.04
62611;BMP280;48683;48.084;17.272;2022-12-07T07:12:56;100241.72;;;5.09
62611;BMP280;48683;48.084;17.272;2022-12-07T07:15:21;100240.00;;;5.01
62611;BMP280;48683;48.084;17.272;2022-12-07T07:17:46;100234.41;;;5.06
62611;BMP280;48683;48.084;17.272;2022-12-07T07:20:12;100245.56;;;5.11
62611;BMP280;48683;48.084;17.272;2022-12-07T07:22:38;100241.97;;;5.04
62611;BMP280;48683;48.084;17.272;2022-12-07T07:25:03;100241.19;;;5.03
62611;BMP280;48683;48.084;17.272;2022-12-07T07:27:28;100238.53;;;5.03
62611;BMP280;48683;48.084;17.272;2022-12-07T07:29:54;100250.63;;;5.16
62611;BMP280;48683;48.084;17.272;2022-12-07T07:32:19;100254.47;;;5.19
62611;BMP280;48683;48.084;17.272;2022-12-07T07:34:46;100245.38;;;5.20
62611;BMP280;48683;48.084;17.272;2022-12-07T07:37:12;100242.72;;;5.20
62611;BMP280;48683;48.084;17.272;2022-12-07T07:39:38;100253.00;;;5.21
62611;BMP280;48683;48.084;17.272;2022-12-07T07:42:03;100248.44;;;5.22
62611;BMP280;48683;48.084;17.272;2022-12-07T07:44:29;100252.09;;;5.33
62611;BMP280;48683;48.084;17.272;2022-12-07T07:46:54;100243.63;;;5.28
62611;BMP280;48683;48.084;17.272;2022-12-07T07:49:19;100236.00;;;5.26
62611;BMP280;48683;48.084;17.272;2022-12-07T07:51:45;100233.00;;;5.28
62611;BMP280;48683;48.084;17.272;2022-12-07T07:54:10;100252.53;;;5.35
62611;BMP280;48683;48.084;17.272;2022-12-07T07:56:35;100258.47;;;5.44
62611;BMP280;48683;48.084;17.272;2022-12-07T07:59:01;100241.97;;;5.39
62611;BMP280;48683;48.084;17.272;2022-12-07T08:01:26;100252.75;;;5.46
62611;BMP280;48683;48.084;17.272;2022-12-07T08:03:51;100251.72;;;5.50
62611;BMP280;48683;48.084;17.272;2022-12-07T08:06:17;100256.41;;;5.57
62611;BMP280;48683;48.084;17.272;2022-12-07T08:08:42;100255.50;;;5.49
62611;BMP280;48683;48.084;17.272;2022-12-07T08:11:08;100252.16;;;5.52
62611;BMP280;48683;48.084;17.272;2022-12-07T08:13:34;100269.91;;;5.64
62611;BMP280;48683;48.084;17.272;2022-12-07T08:16:04;100262.31;;;5.66
62611;BMP280;48683;48.084;17.272;2022-12-07T08:18:30;100264.63;;;5.67
62611;BMP280;48683;48.084;17.272;2022-12-07T08:20:59;100271.00;;;5.63
62611;BMP280;48683;48.084;17.272;2022-12-07T08:23:26;100269.13;;;5.63
62611;BMP280;48683;48.084;17.272;2022-12-07T08:25:51;100265.81;;;5.51
62611;BMP280;48683;48.084;17.272;2022-12-07T08:28:17;100276.59;;;5.58
62611;BMP280;48683;48.084;17.272;2022-12-07T08:30:42;100285.09;;;5.63
62611;BMP280;48683;48.084;17.272;2022-12-07T08:33:09;100277.53;;;5.65
62611;BMP280;48683;48.084;17.272;2022-12-07T08:35:35;100274.38;;;5.60
62611;BMP280;48683;48.084;17.272;2022-12-07T08:38:01;100284.06;;;5.68
62611;BMP280;48683;48.084;17.272;2022-12-07T08:40:27;100279.06;;;5.66
62611;BMP280;48683;48.084;17.272;2022-12-07T08:42:53;100278.28;;;5.66
62611;BMP280;48683;48.084;17.272;2022-12-07T08:45:20;100282.50;;;5.67
62611;BMP280;48683;48.084;17.272;2022-12-07T08:47:48;100276.25;;;5.59
62611;BMP280;48683;48.084;17.272;2022-12-07T08:50:16;100289.53;;;5.75
62611;BMP280;48683;48.084;17.272;2022-12-07T08:52:41;100282.56;;;5.70
62611;BMP280;48683;48.084;17.272;2022-12-07T08:55:10;100265.25;;;5.61
62611;BMP280;48683;48.084;17.272;2022-12-07T08:57:36;100256.72;;;5.71
62611;BMP280;48683;48.084;17.272;2022-12-07T09:00:03;100247.75;;;5.79
62611;BMP280;48683;48.084;17.272;2022-12-07T09:02:30;100250.56;;;5.86
62611;BMP280;48683;48.084;17.272;2022-12-07T09:04:56;100263.44;;;5.84
62611;BMP280;48683;48.084;17.272;2022-12-07T09:07:21;100271.34;;;5.81
62611;BMP280;48683;48.084;17.272;2022-12-07T09:09:46;100282.53;;;5.86
62611;BMP280;48683;48.084;17.272;2022-12-07T09:12:12;100262.00;;;5.87
62611;BMP280;48683;48.084;17.272;2022-12-07T09:14:37;100269.63;;;5.88
62611;BMP280;48683;48.084;17.272;2022-12-07T09:17:07;100284.16;;;5.91
62611;BMP280;48683;48.084;17.272;2022-12-07T09:19:33;100283.00;;;5.92
62611;BMP280;48683;48.084;17.272;2022-12-07T09:21:58;100260.28;;;5.79
62611;BMP280;48683;48.084;17.272;2022-12-07T09:24:24;100275.31;;;5.87
62611;BMP280;48683;48.084;17.272;2022-12-07T09:26:49;100255.31;;;5.77
62611;BMP280;48683;48.084;17.272;2022-12-07T09:29:14;100259.41;;;5.90
62611;BMP280;48683;48.084;17.272;2022-12-07T09:31:40;100267.53;;;5.97
62611;BMP280;48683;48.084;17.272;2022-12-07T09:34:05;100253.88;;;5.99
62611;BMP280;48683;48.084;17.272;2022-12-07T09:36:31;100261.22;;;6.05
62611;BMP280;48683;48.084;17.272;2022-12-07T09:38:57;100266.72;;;6.16
62611;BMP280;48683;48.084;17.272;2022-12-07T09:41:24;100259.09;;;6.14
62611;BMP280;48683;48.084;17.272;2022-12-07T09:43:50;100257.34;;;6.22
62611;BMP280;48683;48.084;17.272;2022-12-07T09:46:18;100266.84;;;6.23
62611;BMP280;48683;48.084;17.272;2022-12-07T09:48:46;100259.47;;;6.36
62611;BMP280;48683;48.084;17.272;2022-12-07T09:51:21;100250.22;;;6.30
62611;BMP280;48683;48.084;17.272;2022-12-07T09:53:47;100258.75;;;6.39
62611;BMP280;48683;48.084;17.272;2022-12-07T09:56:14;100257.09;;;6.31
62611;BMP280;48683;48.084;17.272;2022-12-07T09:58:40;100248.84;;;6.16
62611;BMP280;48683;48.084;17.272;2022-12-07T10:03:30;100232.75;;;6.32
62611;BMP280;48683;48.084;17.272;2022-12-07T10:05:56;100228.84;;;6.26
62611;BMP280;48683;48.084;17.272;2022-12-07T10:08:22;100234.69;;;6.35
62611;BMP280;48683;48.084;17.272;2022-12-07T10:10:52;100226.69;;;6.35
62611;BMP280;48683;48.084;17.272;2022-12-07T10:13:21;100222.41;;;6.31
62611;BMP280;48683;48.084;17.272;2022-12-07T10:15:57;100216.25;;;6.27
62611;BMP280;48683;48.084;17.272;2022-12-07T10:18:36;100218.75;;;6.39
62611;BMP280;48683;48.084;17.272;2022-12-07T10:21:08;100212.19;;;6.33
62611;BMP280;48683;48.084;17.272;2022-12-07T10:23:36;100205.47;;;6.42
62611;BMP280;48683;48.084;17.272;2022-12-07T10:26:26;100211.63;;;6.69
62611;BMP280;48683;48.084;17.272;2022-12-07T10:28:53;100215.31;;;6.87
62611;BMP280;48683;48.084;17.272;2022-12-07T10:31:21;100201.06;;;7.02
62611;BMP280;48683;48.084;17.272;2022-12-07T10:33:53;100200.53;;;7.20
62611;BMP280;48683;48.084;17.272;2022-12-07T10:36:35;100220.38;;;7.22
62611;BMP280;48683;48.084;17.272;2022-12-07T10:39:11;100205.28;;;7.33
62611;BMP280;48683;48.084;17.272;2022-12-07T10:42:01;100196.28;;;7.48
62611;BMP280;48683;48.084;17.272;2022-12-07T10:44:29;100200.69;;;7.67
62611;BMP280;48683;48.084;17.272;2022-12-07T10:47:17;100188.41;;;7.59
62611;BMP280;48683;48.084;17.272;2022-12-07T10:50:07;100187.28;;;7.60
62611;BMP280;48683;48.084;17.272;2022-12-07T11:01:15;100180.97;;;7.42
62611;BMP280;48683;48.084;17.272;2022-12-07T11:07:01;100174.03;;;7.71
62611;BMP280;48683;48.084;17.272;2022-12-07T11:09:52;100176.06;;;7.47
62611;BMP280;48683;48.084;17.272;2022-12-07T11:18:15;100158.91;;;7.48
62611;BMP280;48683;48.084;17.272;2022-12-07T11:20:43;100159.84;;;7.67
62611;BMP280;48683;48.084;17.272;2022-12-07T11:23:21;100161.88;;;7.77
62611;BMP280;48683;48.084;17.272;2022-12-07T11:34:06;100162.50;;;8.00
62611;BMP280;48683;48.084;17.272;2022-12-07T11:36:41;100157.88;;;7.97
62611;BMP280;48683;48.084;17.272;2022-12-07T11:39:26;100131.50;;;7.95
62611;BMP280;48683;48.084;17.272;2022-12-07T11:42:01;100152.56;;;8.00
62611;BMP280;48683;48.084;17.272;2022-12-07T11:44:52;100147.47;;;7.85
62611;BMP280;48683;48.084;17.272;2022-12-07T11:52:23;100124.44;;;7.73
62611;BMP280;48683;48.084;17.272;2022-12-07T11:54:51;100130.69;;;7.88
62611;BMP280;48683;48.084;17.272;2022-12-07T11:57:25;100121.47;;;7.82
62611;BMP280;48683;48.084;17.272;2022-12-07T11:59:59;100120.28;;;7.79
62611;BMP280;48683;48.084;17.272;2022-12-07T12:02:36;100110.50;;;7.53
62611;BMP280;48683;48.084;17.272;2022-12-07T12:05:17;100129.94;;;7.50
62611;BMP280;48683;48.084;17.272;2022-12-07T12:07:44;100123.41;;;7.48
62611;BMP280;48683;48.084;17.272;2022-12-07T12:23:20;100138.41;;;7.23
62611;BMP280;48683;48.084;17.272;2022-12-07T12:26:26;100138.47;;;7.30
62611;BMP280;48683;48.084;17.272;2022-12-07T12:28:58;100130.69;;;7.18
62611;BMP280;48683;48.084;17.272;2022-12-07T12:33:55;100144.28;;;7.05
62611;BMP280;48683;48.084;17.272;2022-12-07T12:47:03;100132.00;;;7.01
62611;BMP280;48683;48.084;17.272;2022-12-07T12:49:43;100134.38;;;7.06
62611;BMP280;48683;48.084;17.272;2022-12-07T12:55:00;100143.38;;;6.94
62611;BMP280;48683;48.084;17.272;2022-12-07T12:57:28;100137.72;;;6.99
62611;BMP280;48683;48.084;17.272;2022-12-07T13:05:00;100126.50;;;6.87
62611;BMP280;48683;48.084;17.272;2022-12-07T13:26:39;100135.78;;;6.96
62611;BMP280;48683;48.084;17.272;2022-12-07T13:31:46;100139.88;;;6.90
62611;BMP280;48683;48.084;17.272;2022-12-07T13:36:57;100131.06;;;6.86
62611;BMP280;48683;48.084;17.272;2022-12-07T13:39:24;100132.13;;;6.82
62611;BMP280;48683;48.084;17.272;2022-12-07T13:41:55;100134.03;;;6.81
62611;BMP280;48683;48.084;17.272;2022-12-07T13:44:22;100138.16;;;6.75
62611;BMP280;48683;48.084;17.272;2022-12-07T13:49:28;100135.22;;;6.84
62611;BMP280;48683;48.084;17.272;2022-12-07T13:51:54;100137.84;;;6.80
62611;BMP280;48683;48.084;17.272;2022-12-07T13:54:20;100138.19;;;6.79
62611;BMP280;48683;48.084;17.272;2022-12-07T13:56:52;100127.88;;;6.77
62611;BMP280;48683;48.084;17.272;2022-12-07T13:59:23;100139.75;;;6.80
62611;BMP280;48683;48.084;17.272;2022-12-07T14:01:51;100131.69;;;6.76
62611;BMP280;48683;48.084;17.272;2022-12-07T14:04:32;100134.66;;;6.71
62611;BMP280;48683;48.084;17.272;2022-12-07T14:06:58;100135.50;;;6.75
62611;BMP280;48683;48.084;17.272;2022-12-07T14:09:25;100140.09;;;6.78
62611;BMP280;48683;48.084;17.272;2022-12-07T14:11:56;100140.31;;;6.66
62611;BMP280;48683;48.084;17.272;2022-12-07T14:14:25;100139.38;;;6.55
62611;BMP280;48683;48.084;17.272;2022-12-07T14:19:47;100141.22;;;6.51
62611;BMP280;48683;48.084;17.272;2022-12-07T14:22:40;100145.53;;;6.59
62611;BMP280;48683;48.084;17.272;2022-12-07T14:25:26;100148.50;;;6.54
62611;BMP280;48683;48.084;17.272;2022-12-07T14:28:00;100145.03;;;6.50
62611;BMP280;48683;48.084;17.272;2022-12-07T14:30:30;100150.00;;;6.51
62611;BMP280;48683;48.084;17.272;2022-12-07T14:32:59;100137.75;;;6.47
62611;BMP280;48683;48.084;17.272;2022-12-07T14:35:25;100144.97;;;6.46
62611;BMP280;48683;48.084;17.272;2022-12-07T14:37:51;100141.59;;;6.49
62611;BMP280;48683;48.084;17.272;2022-12-07T14:40:22;100148.41;;;6.47
62611;BMP280;48683;48.084;17.272;2022-12-07T14:42:51;100139.25;;;6.44
62611;BMP280;48683;48.084;17.272;2022-12-07T14:45:21;100148.84;;;6.49
62611;BMP280;48683;48.084;17.272;2022-12-07T14:47:47;100154.94;;;6.49
62611;BMP280;48683;48.084;17.272;2022-12-07T14:50:15;100154.88;;;6.46
62611;BMP280;48683;48.084;17.272;2022-12-07T14:52:42;100148.72;;;6.42
62611;BMP280;48683;48.084;17.272;2022-12-07T14:55:34;100157.47;;;6.42
62611;BMP280;48683;48.084;17.272;2022-12-07T14:57:58;100151.41;;;6.42
62611;BMP280;48683;48.084;17.272;2022-12-07T15:00:26;100153.09;;;6.31
62611;BMP280;48683;48.084;17.272;2022-12-07T15:02:52;100149.16;;;6.21
62611;BMP280;48683;48.084;17.272;2022-12-07T15:05:18;100154.19;;;6.26
62611;BMP280;48683;48.084;17.272;2022-12-07T15:07:45;100162.94;;;6.27
62611;BMP280;48683;48.084;17.272;2022-12-07T15:10:36;100168.16;;;6.19
62611;BMP280;48683;48.084;17.272;2022-12-07T15:13:04;100166.25;;;6.20
62611;BMP280;48683;48.084;17.272;2022-12-07T15:15:50;100161.66;;;6.17
62611;BMP280;48683;48.084;17.272;2022-12-07T15:18:15;100166.88;;;6.10
62611;BMP280;48683;48.084;17.272;2022-12-07T15:20:41;100161.81;;;6.05
62611;BMP280;48683;48.084;17.272;2022-12-07T15:23:07;100169.75;;;6.01
62611;BMP280;48683;48.084;17.272;2022-12-07T15:25:32;100167.16;;;6.05
62611;BMP280;48683;48.084;17.272;2022-12-07T15:27:58;100156.38;;;5.98
62611;BMP280;48683;48.084;17.272;2022-12-07T15:30:23;100162.88;;;6.00
62611;BMP280;48683;48.084;17.272;2022-12-07T15:32:49;100162.13;;;6.00
62611;BMP280;48683;48.084;17.272;2022-12-07T15:35:15;100164.31;;;5.94
62611;BMP280;48683;48.084;17.272;2022-12-07T15:37:41;100158.22;;;5.94
62611;BMP280;48683;48.084;17.272;2022-12-07T15:40:06;100160.88;;;5.94
62611;BMP280;48683;48.084;17.272;2022-12-07T15:42:32;100151.13;;;5.82
62611;BMP280;48683;48.084;17.272;2022-12-07T15:44:57;100146.19;;;5.84
62611;BMP280;48683;48.084;17.272;2022-12-07T15:47:37;100162.78;;;5.93
62611;BMP280;48683;48.084;17.272;2022-12-07T15:50:05;100170.81;;;5.97
62611;BMP280;48683;48.084;17.272;2022-12-07T15:52:30;100155.34;;;5.83
62611;BMP280;48683;48.084;17.272;2022-12-07T15:54:56;100165.63;;;5.85
62611;BMP280;48683;48.084;17.272;2022-12-07T15:57:21;100156.75;;;5.77
62611;BMP280;48683;48.084;17.272;2022-12-07T15:59:47;100136.25;;;5.58
62611;BMP280;48683;48.084;17.272;2022-12-07T16:02:12;100155.50;;;5.71
62611;BMP280;48683;48.084;17.272;2022-12-07T16:04:38;100168.16;;;5.78
62611;BMP280;48683;48.084;17.272;2022-12-07T16:07:03;100153.25;;;5.73
62611;BMP280;48683;48.084;17.272;2022-12-07T16:09:29;100157.31;;;5.67
62611;BMP280;48683;48.084;17.272;2022-12-07T16:11:54;100141.50;;;5.55